sensor_id;sensor_type;location;lat;lon;timestamp;P1;durP1;ratioP1;P2;durP2;ratioP2
47239;SDS011;32978;53.586;10.052;2023-08-20T00:01:49;14.13;;;11.27;;
47239;SDS011;32978;53.586;10.052;2023-08-20T00:06:48;12.82;;;11.60;;
47239;SDS011;32978;53.586;10.052;2023-08-20T00:11:44;21.92;;;14.02;;
47239;SDS011;32978;53.586;10.052;2023-08-20T00:16:41;21.30;;;12.90;;
47239;SDS011;32978;53.586;10.052;2023-08-20T00:21:41;20.13;;;13.82;;
47239;SDS011;32978;53.586;10.052;2023-08-20T00:26:38;17.53;;;13.80;;
47239;SDS011;32978;53.586;10.052;2023-08-20T00:31:34;14.73;;;13.23;;
47239;SDS011;32978;53.586;10.052;2023-08-20T00:36:31;21.88;;;14.93;;
47239;SDS011;32978;53.586;10.052;2023-08-20T00:41:27;16.58;;;14.88;;
47239;SDS011;32978;53.586;10.052;2023-08-20T00:46:23;16.25;;;14.10;;
47239;SDS011;32978;53.586;10.052;2023-08-20T00:51:20;17.35;;;15.57;;
47239;SDS011;32978;53.586;10.052;2023-08-20T00:56:16;15.98;;;13.32;;
47239;SDS011;32978;53.586;10.052;2023-08-20T01:01:12;18.45;;;15.23;;
47239;SDS011;32978;53.586;10.052;2023-08-20T01:06:33;17.40;;;15.05;;
47239;SDS011;32978;53.586;10.052;2023-08-20T01:11:26;19.75;;;14.88;;
47239;SDS011;32978;53.586;10.052;2023-08-20T01:16:25;16.95;;;15.15;;
47239;SDS011;32978;53.586;10.052;2023-08-20T01:21:43;15.65;;;14.13;;
47239;SDS011;32978;53.586;10.052;2023-08-20T01:31:56;21.95;;;15.77;;
47239;SDS011;32978;53.586;10.052;2023-08-20T01:36:52;17.15;;;14.88;;
47239;SDS011;32978;53.586;10.052;2023-08-20T01:48:04;18.10;;;14.63;;
47239;SDS011;32978;53.586;10.052;2023-08-20T01:53:01;21.23;;;16.23;;
47239;SDS011;32978;53.586;10.052;2023-08-20T01:57:59;16.73;;;14.40;;
47239;SDS011;32978;53.586;10.052;2023-08-20T02:02:55;18.80;;;16.15;;
47239;SDS011;32978;53.586;10.052;2023-08-20T02:07:51;23.23;;;15.60;;
47239;SDS011;32978;53.586;10.052;2023-08-20T02:12:47;18.33;;;16.25;;
47239;SDS011;32978;53.586;10.052;2023-08-20T02:17:44;17.77;;;15.93;;
47239;SDS011;32978;53.586;10.052;2023-08-20T02:22:40;21.30;;;14.85;;
47239;SDS011;32978;53.586;10.052;2023-08-20T02:27:37;25.15;;;15.77;;
47239;SDS011;32978;53.586;10.052;2023-08-20T02:32:33;18.88;;;15.85;;
47239;SDS011;32978;53.586;10.052;2023-08-20T03:01:00;24.52;;;15.40;;
47239;SDS011;32978;53.586;10.052;2023-08-20T03:05:56;16.90;;;15.15;;
47239;SDS011;32978;53.586;10.052;2023-08-20T03:10:53;17.98;;;15.57;;
47239;SDS011;32978;53.586;10.052;2023-08-20T03:15:49;20.38;;;16.52;;
47239;SDS011;32978;53.586;10.052;2023-08-20T03:20:46;16.60;;;14.82;;
47239;SDS011;32978;53.586;10.052;2023-08-20T03:25:42;17.83;;;15.93;;
47239;SDS011;32978;53.586;10.052;2023-08-20T03:30:38;18.88;;;15.93;;
47239;SDS011;32978;53.586;10.052;2023-08-20T03:35:35;19.15;;;15.85;;
47239;SDS011;32978;53.586;10.052;2023-08-20T04:03:45;17.25;;;15.65;;
47239;SDS011;32978;53.586;10.052;2023-08-20T04:08:41;20.88;;;16.55;;
47239;SDS011;32978;53.586;10.052;2023-08-20T04:25:10;31.00;;;24.17;;
47239;SDS011;32978;53.586;10.052;2023-08-20T04:35:18;36.13;;;27.55;;
47239;SDS011;32978;53.586;10.052;2023-08-20T04:40:15;32.75;;;26.77;;
47239;SDS011;32978;53.586;10.052;2023-08-20T04:45:13;33.95;;;29.10;;
47239;SDS011;32978;53.586;10.052;2023-08-20T05:46:08;36.10;;;28.10;;
47239;SDS011;32978;53.586;10.052;2023-08-20T05:51:05;44.25;;;31.23;;
47239;SDS011;32978;53.586;10.052;2023-08-20T05:56:01;40.22;;;30.77;;
47239;SDS011;32978;53.586;10.052;2023-08-20T06:06:08;35.30;;;28.80;;
47239;SDS011;32978;53.586;10.052;2023-08-20T06:11:05;46.17;;;29.50;;
47239;SDS011;32978;53.586;10.052;2023-08-20T06:16:01;32.83;;;24.55;;
47239;SDS011;32978;53.586;10.052;2023-08-20T06:26:09;31.65;;;26.48;;
47239;SDS011;32978;53.586;10.052;2023-08-20T07:20:27;39.75;;;26.98;;
47239;SDS011;32978;53.586;10.052;2023-08-20T07:25:25;38.60;;;27.15;;
47239;SDS011;32978;53.586;10.052;2023-08-20T07:53:20;34.80;;;25.08;;
47239;SDS011;32978;53.586;10.052;2023-08-20T08:04:09;30.65;;;21.90;;
47239;SDS011;32978;53.586;10.052;2023-08-20T08:09:14;27.23;;;18.33;;
47239;SDS011;32978;53.586;10.052;2023-08-20T08:14:10;24.63;;;17.38;;
47239;SDS011;32978;53.586;10.052;2023-08-20T08:19:07;12.25;;;10.27;;
47239;SDS011;32978;53.586;10.052;2023-08-20T08:24:04;10.48;;;9.23;;
47239;SDS011;32978;53.586;10.052;2023-08-20T08:29:01;10.68;;;8.85;;
47239;SDS011;32978;53.586;10.052;2023-08-20T08:33:58;9.38;;;8.40;;
47239;SDS011;32978;53.586;10.052;2023-08-20T08:38:54;9.27;;;6.15;;
47239;SDS011;32978;53.586;10.052;2023-08-20T08:43:51;12.80;;;6.97;;
47239;SDS011;32978;53.586;10.052;2023-08-20T08:48:47;9.40;;;5.63;;
47239;SDS011;32978;53.586;10.052;2023-08-20T08:53:44;8.25;;;6.10;;
47239;SDS011;32978;53.586;10.052;2023-08-20T08:58:41;9.48;;;6.10;;
47239;SDS011;32978;53.586;10.052;2023-08-20T09:03:37;10.77;;;6.57;;
47239;SDS011;32978;53.586;10.052;2023-08-20T09:08:33;8.15;;;5.80;;
47239;SDS011;32978;53.586;10.052;2023-08-20T09:25:42;7.10;;;5.95;;
47239;SDS011;32978;53.586;10.052;2023-08-20T09:31:39;10.00;;;5.53;;
47239;SDS011;32978;53.586;10.052;2023-08-20T09:49:09;8.65;;;5.53;;
47239;SDS011;32978;53.586;10.052;2023-08-20T10:00:45;8.02;;;6.00;;
47239;SDS011;32978;53.586;10.052;2023-08-20T10:05:48;9.65;;;5.82;;
47239;SDS011;32978;53.586;10.052;2023-08-20T10:11:18;8.70;;;5.80;;
47239;SDS011;32978;53.586;10.052;2023-08-20T10:22:42;7.78;;;6.00;;
47239;SDS011;32978;53.586;10.052;2023-08-20T11:04:49;6.70;;;6.10;;
47239;SDS011;32978;53.586;10.052;2023-08-20T11:10:24;8.05;;;5.90;;
47239;SDS011;32978;53.586;10.052;2023-08-20T11:22:39;11.10;;;6.07;;
47239;SDS011;32978;53.586;10.052;2023-08-20T11:27:57;10.98;;;6.72;;
47239;SDS011;32978;53.586;10.052;2023-08-20T11:33:42;6.97;;;5.43;;
47239;SDS011;32978;53.586;10.052;2023-08-20T11:39:08;7.70;;;6.25;;
47239;SDS011;32978;53.586;10.052;2023-08-20T11:44:04;8.13;;;6.20;;
47239;SDS011;32978;53.586;10.052;2023-08-20T11:49:02;6.97;;;6.28;;
47239;SDS011;32978;53.586;10.052;2023-08-20T11:53:59;9.55;;;6.35;;
47239;SDS011;32978;53.586;10.052;2023-08-20T11:58:59;8.75;;;6.30;;
47239;SDS011;32978;53.586;10.052;2023-08-20T12:28:23;10.48;;;6.93;;
47239;SDS011;32978;53.586;10.052;2023-08-20T12:33:40;6.90;;;6.13;;
47239;SDS011;32978;53.586;10.052;2023-08-20T12:51:18;9.65;;;5.97;;
47239;SDS011;32978;53.586;10.052;2023-08-20T12:56:43;6.45;;;5.85;;
47239;SDS011;32978;53.586;10.052;2023-08-20T13:01:55;8.63;;;6.53;;
47239;SDS011;32978;53.586;10.052;2023-08-20T13:19:33;6.65;;;5.95;;
47239;SDS011;32978;53.586;10.052;2023-08-20T13:24:41;7.20;;;6.40;;
47239;SDS011;32978;53.586;10.052;2023-08-20T13:29:58;10.90;;;6.13;;
47239;SDS011;32978;53.586;10.052;2023-08-20T13:34:55;7.25;;;5.97;;
47239;SDS011;32978;53.586;10.052;2023-08-20T13:39:51;6.93;;;6.00;;
47239;SDS011;32978;53.586;10.052;2023-08-20T13:44:48;9.68;;;6.20;;
47239;SDS011;32978;53.586;10.052;2023-08-20T13:49:53;7.78;;;6.28;;
47239;SDS011;32978;53.586;10.052;2023-08-20T14:07:26;11.40;;;5.80;;
47239;SDS011;32978;53.586;10.052;2023-08-20T14:12:27;6.88;;;5.60;;
47239;SDS011;32978;53.586;10.052;2023-08-20T14:17:27;8.98;;;5.63;;
47239;SDS011;32978;53.586;10.052;2023-08-20T14:35:07;6.97;;;5.47;;
47239;SDS011;32978;53.586;10.052;2023-08-20T14:52:04;7.70;;;5.10;;
47239;SDS011;32978;53.586;10.052;2023-08-20T14:57:36;8.25;;;5.40;;
47239;SDS011;32978;53.586;10.052;2023-08-20T15:08:44;8.93;;;4.78;;
47239;SDS011;32978;53.586;10.052;2023-08-20T15:14:05;8.13;;;5.05;;
47239;SDS011;32978;53.586;10.052;2023-08-20T15:19:51;8.35;;;5.60;;
47239;SDS011;32978;53.586;10.052;2023-08-20T15:37:16;10.40;;;5.35;;
47239;SDS011;32978;53.586;10.052;2023-08-20T15:42:58;7.88;;;5.47;;
47239;SDS011;32978;53.586;10.052;2023-08-20T15:48:23;8.80;;;5.65;;
47239;SDS011;32978;53.586;10.052;2023-08-20T15:53:31;9.25;;;6.40;;
47239;SDS011;32978;53.586;10.052;2023-08-20T15:58:28;6.50;;;4.90;;
47239;SDS011;32978;53.586;10.052;2023-08-20T16:03:40;6.80;;;5.00;;
47239;SDS011;32978;53.586;10.052;2023-08-20T16:08:44;6.93;;;4.88;;
47239;SDS011;32978;53.586;10.052;2023-08-20T16:14:01;5.50;;;5.00;;
47239;SDS011;32978;53.586;10.052;2023-08-20T16:19:00;6.30;;;5.60;;
47239;SDS011;32978;53.586;10.052;2023-08-20T16:23:57;7.18;;;5.32;;
47239;SDS011;32978;53.586;10.052;2023-08-20T16:28:53;6.20;;;4.60;;
47239;SDS011;32978;53.586;10.052;2023-08-20T16:33:49;7.63;;;5.18;;
47239;SDS011;32978;53.586;10.052;2023-08-20T16:38:49;8.63;;;5.38;;
47239;SDS011;32978;53.586;10.052;2023-08-20T16:43:45;6.25;;;5.65;;
47239;SDS011;32978;53.586;10.052;2023-08-20T16:48:41;7.25;;;5.30;;
47239;SDS011;32978;53.586;10.052;2023-08-20T16:53:38;6.75;;;6.07;;
47239;SDS011;32978;53.586;10.052;2023-08-20T16:58:34;7.68;;;5.38;;
47239;SDS011;32978;53.586;10.052;2023-08-20T17:03:30;6.00;;;5.40;;
47239;SDS011;32978;53.586;10.052;2023-08-20T17:08:26;5.75;;;4.95;;
47239;SDS011;32978;53.586;10.052;2023-08-20T17:13:23;9.30;;;4.72;;
47239;SDS011;32978;53.586;10.052;2023-08-20T17:18:20;6.20;;;4.47;;
47239;SDS011;32978;53.586;10.052;2023-08-20T17:23:17;9.48;;;4.50;;
47239;SDS011;32978;53.586;10.052;2023-08-20T17:28:13;6.82;;;4.53;;
47239;SDS011;32978;53.586;10.052;2023-08-20T17:33:09;11.60;;;5.38;;
47239;SDS011;32978;53.586;10.052;2023-08-20T17:38:11;8.85;;;5.07;;
47239;SDS011;32978;53.586;10.052;2023-08-20T17:43:26;5.30;;;4.80;;
47239;SDS011;32978;53.586;10.052;2023-08-20T17:49:37;8.45;;;6.10;;
47239;SDS011;32978;53.586;10.052;2023-08-20T17:54:47;6.90;;;5.22;;
47239;SDS011;32978;53.586;10.052;2023-08-20T18:17:53;11.20;;;6.22;;
47239;SDS011;32978;53.586;10.052;2023-08-20T18:22:57;7.43;;;5.63;;
47239;SDS011;32978;53.586;10.052;2023-08-20T18:28:17;8.73;;;5.82;;
47239;SDS011;32978;53.586;10.052;2023-08-20T18:34:16;8.80;;;5.72;;
47239;SDS011;32978;53.586;10.052;2023-08-20T18:40:13;6.78;;;5.57;;
47239;SDS011;32978;53.586;10.052;2023-08-20T18:51:12;18.35;;;6.57;;
47239;SDS011;32978;53.586;10.052;2023-08-20T18:56:11;7.38;;;5.43;;
47239;SDS011;32978;53.586;10.052;2023-08-20T19:01:07;6.25;;;5.28;;
47239;SDS011;32978;53.586;10.052;2023-08-20T19:06:04;6.65;;;5.20;;
47239;SDS011;32978;53.586;10.052;2023-08-20T19:11:01;6.82;;;5.40;;
47239;SDS011;32978;53.586;10.052;2023-08-20T19:15:57;7.90;;;5.50;;
47239;SDS011;32978;53.586;10.052;2023-08-20T19:20:54;7.45;;;5.47;;
47239;SDS011;32978;53.586;10.052;2023-08-20T19:25:50;8.68;;;6.07;;
47239;SDS011;32978;53.586;10.052;2023-08-20T19:41:30;7.55;;;6.00;;
47239;SDS011;32978;53.586;10.052;2023-08-20T19:47:02;7.30;;;5.88;;
47239;SDS011;32978;53.586;10.052;2023-08-20T19:52:21;10.48;;;5.90;;
47239;SDS011;32978;53.586;10.052;2023-08-20T19:57:17;7.82;;;5.93;;
47239;SDS011;32978;53.586;10.052;2023-08-20T20:02:13;12.10;;;6.10;;
47239;SDS011;32978;53.586;10.052;2023-08-20T20:07:09;9.90;;;5.55;;
47239;SDS011;32978;53.586;10.052;2023-08-20T20:12:17;9.15;;;5.68;;
47239;SDS011;32978;53.586;10.052;2023-08-20T20:17:14;7.88;;;5.68;;
47239;SDS011;32978;53.586;10.052;2023-08-20T20:22:10;9.05;;;5.38;;
47239;SDS011;32978;53.586;10.052;2023-08-20T20:27:06;8.00;;;6.05;;
47239;SDS011;32978;53.586;10.052;2023-08-20T20:32:03;8.23;;;6.32;;
47239;SDS011;32978;53.586;10.052;2023-08-20T20:36:59;12.13;;;6.15;;
47239;SDS011;32978;53.586;10.052;2023-08-20T20:41:56;7.70;;;5.95;;
47239;SDS011;32978;53.586;10.052;2023-08-20T20:46:52;9.93;;;6.57;;
47239;SDS011;32978;53.586;10.052;2023-08-20T20:51:48;8.90;;;6.63;;
47239;SDS011;32978;53.586;10.052;2023-08-20T20:56:44;11.75;;;7.85;;
47239;SDS011;32978;53.586;10.052;2023-08-20T21:01:41;8.65;;;6.00;;
47239;SDS011;32978;53.586;10.052;2023-08-20T21:06:37;12.50;;;8.70;;
47239;SDS011;32978;53.586;10.052;2023-08-20T21:11:33;12.10;;;6.70;;
47239;SDS011;32978;53.586;10.052;2023-08-20T21:16:30;12.25;;;7.93;;
47239;SDS011;32978;53.586;10.052;2023-08-20T21:21:26;11.13;;;7.03;;
47239;SDS011;32978;53.586;10.052;2023-08-20T21:26:23;12.38;;;8.43;;
47239;SDS011;32978;53.586;10.052;2023-08-20T21:31:19;12.60;;;7.60;;
47239;SDS011;32978;53.586;10.052;2023-08-20T21:36:15;15.85;;;7.13;;
47239;SDS011;32978;53.586;10.052;2023-08-20T21:41:11;10.85;;;6.82;;
47239;SDS011;32978;53.586;10.052;2023-08-20T21:46:08;8.60;;;6.07;;
47239;SDS011;32978;53.586;10.052;2023-08-20T21:51:04;8.55;;;5.72;;
47239;SDS011;32978;53.586;10.052;2023-08-20T21:56:00;7.80;;;5.70;;
47239;SDS011;32978;53.586;10.052;2023-08-20T22:00:57;10.23;;;5.63;;
47239;SDS011;32978;53.586;10.052;2023-08-20T22:05:58;9.43;;;6.07;;
47239;SDS011;32978;53.586;10.052;2023-08-20T22:10:55;9.85;;;6.10;;
47239;SDS011;32978;53.586;10.052;2023-08-20T22:15:52;7.20;;;6.15;;
47239;SDS011;32978;53.586;10.052;2023-08-20T22:20:50;7.80;;;5.75;;
47239;SDS011;32978;53.586;10.052;2023-08-20T22:25:46;13.82;;;5.85;;
47239;SDS011;32978;53.586;10.052;2023-08-20T22:30:43;10.52;;;6.15;;
47239;SDS011;32978;53.586;10.052;2023-08-20T22:35:39;19.42;;;6.25;;
47239;SDS011;32978;53.586;10.052;2023-08-20T22:40:36;9.68;;;6.82;;
47239;SDS011;32978;53.586;10.052;2023-08-20T22:45:33;10.65;;;6.50;;
47239;SDS011;32978;53.586;10.052;2023-08-20T22:50:30;10.48;;;6.38;;
47239;SDS011;32978;53.586;10.052;2023-08-20T22:55:27;9.70;;;6.32;;
47239;SDS011;32978;53.586;10.052;2023-08-20T23:00:26;11.45;;;6.07;;
47239;SDS011;32978;53.586;10.052;2023-08-20T23:05:23;11.45;;;6.03;;
47239;SDS011;32978;53.586;10.052;2023-08-20T23:10:19;9.82;;;6.05;;
47239;SDS011;32978;53.586;10.052;2023-08-20T23:15:15;10.30;;;6.43;;
47239;SDS011;32978;53.586;10.052;2023-08-20T23:20:12;10.85;;;6.97;;
47239;SDS011;32978;53.586;10.052;2023-08-20T23:25:09;12.73;;;6.95;;
47239;SDS011;32978;53.586;10.052;2023-08-20T23:30:08;9.30;;;6.72;;
47239;SDS011;32978;53.586;10.052;2023-08-20T23:35:05;9.52;;;7.68;;
47239;SDS011;32978;53.586;10.052;2023-08-20T23:40:03;10.10;;;6.32;;
47239;SDS011;32978;53.586;10.052;2023-08-20T23:44:59;13.20;;;6.68;;
47239;SDS011;32978;53.586;10.052;2023-08-20T23:49:56;12.90;;;7.03;;
47239;SDS011;32978;53.586;10.052;2023-08-20T23:54:52;11.48;;;6.93;;
47239;SDS011;32978;53.586;10.052;2023-08-20T23:59:48;14.00;;;7.32;;
